createdAt,value
2019-03-22T00:02:01.007Z,61.24
2019-03-22T00:04:32.303Z,61.36
2019-03-22T00:07:03.558Z,61.85
2019-03-22T00:09:34.637Z,61.74
2019-03-22T00:12:06.090Z,61.61
2019-03-22T00:14:37.293Z,61.70
2019-03-22T00:17:08.494Z,61.73
2019-03-22T00:19:41.445Z,61.68
2019-03-22T00:22:12.754Z,61.70
2019-03-22T00:24:43.886Z,62.26
2019-03-22T00:27:16.736Z,62.82
2019-03-22T00:29:48.109Z,63.01
2019-03-22T00:32:19.124Z,63.46
2019-03-22T00:34:50.380Z,63.74
2019-03-22T00:37:21.423Z,63.71
2019-03-22T00:39:52.462Z,63.91
2019-03-22T00:42:23.516Z,63.94
2019-03-22T00:44:54.674Z,63.96
2019-03-22T00:47:25.820Z,63.71
2019-03-22T00:49:56.810Z,63.83
2019-03-22T00:52:27.975Z,63.95
2019-03-22T00:54:58.979Z,64.10
2019-03-22T00:57:30.174Z,64.12
2019-03-22T01:00:01.551Z,64.32
2019-03-22T01:02:32.783Z,64.31
2019-03-22T01:05:05.557Z,64.43
2019-03-22T01:07:36.692Z,64.50
2019-03-22T01:10:11.010Z,64.50
2019-03-22T01:12:42.158Z,64.14
2019-03-22T01:15:13.921Z,64.23
2019-03-22T01:17:46.923Z,64.22
2019-03-22T01:20:17.929Z,63.79
2019-03-22T01:22:49.079Z,64.08
2019-03-22T01:25:20.226Z,64.16
2019-03-22T01:27:51.301Z,64.09
2019-03-22T01:30:23.363Z,64.34
2019-03-22T01:32:54.404Z,64.15
2019-03-22T01:35:25.682Z,63.88
2019-03-22T01:37:56.800Z,63.74
2019-03-22T01:40:27.936Z,63.96
2019-03-22T01:42:59.106Z,63.58
2019-03-22T01:45:30.168Z,63.30
2019-03-22T01:48:01.271Z,63.42
2019-03-22T01:50:32.485Z,62.79
2019-03-22T01:53:03.624Z,62.65
2019-03-22T01:55:34.795Z,62.93
2019-03-22T01:58:06.109Z,63.42
2019-03-22T02:00:37.236Z,64.72
2019-03-22T02:03:08.393Z,63.89
2019-03-22T02:05:39.818Z,63.88
2019-03-22T02:08:11.043Z,64.04
2019-03-22T02:10:42.094Z,64.73
2019-03-22T02:13:13.271Z,64.65
2019-03-22T02:15:44.461Z,64.78
2019-03-22T02:18:15.604Z,65.10
2019-03-22T02:20:46.749Z,65.13
2019-03-22T02:23:17.916Z,65.09
2019-03-22T02:25:48.994Z,65.04
2019-03-22T02:28:20.137Z,65.03
2019-03-22T02:30:51.277Z,65.07
2019-03-22T02:33:22.398Z,65.33
2019-03-22T02:35:53.434Z,65.47
2019-03-22T02:38:24.529Z,65.88
2019-03-22T02:40:55.722Z,65.41
2019-03-22T02:43:26.758Z,65.55
2019-03-22T02:45:57.942Z,65.38
2019-03-22T02:48:30.172Z,64.93
2019-03-22T02:51:02.960Z,64.43
2019-03-22T02:53:34.174Z,64.80
2019-03-22T02:56:05.393Z,64.44
2019-03-22T02:58:38.297Z,64.28
2019-03-22T03:01:09.443Z,64.35
2019-03-22T03:03:40.523Z,64.41
2019-03-22T03:06:11.592Z,64.00
2019-03-22T03:08:42.765Z,64.02
2019-03-22T03:11:13.869Z,63.92
2019-03-22T03:13:44.892Z,63.56
2019-03-22T03:16:16.115Z,63.77
2019-03-22T03:18:48.362Z,63.86
2019-03-22T03:21:19.457Z,63.65
2019-03-22T03:23:50.606Z,63.88
2019-03-22T03:26:21.647Z,63.56
2019-03-22T03:28:52.695Z,63.46
2019-03-22T03:31:23.910Z,63.56
2019-03-22T03:33:54.913Z,63.88
2019-03-22T03:36:26.117Z,63.72
2019-03-22T03:38:57.211Z,63.62
2019-03-22T03:41:28.316Z,63.38
2019-03-22T03:44:00.410Z,63.24
2019-03-22T03:46:31.434Z,63.22
2019-03-22T03:49:02.607Z,63.01
2019-03-22T03:51:33.603Z,63.39
2019-03-22T03:54:04.675Z,63.28
2019-03-22T03:56:36.803Z,62.82
2019-03-22T03:59:07.854Z,63.10
2019-03-22T04:01:38.925Z,62.86
2019-03-22T04:04:10.012Z,63.07
2019-03-22T04:06:41.099Z,62.78
2019-03-22T04:09:12.149Z,62.83
2019-03-22T04:11:43.175Z,62.91
2019-03-22T04:14:14.160Z,63.30
2019-03-22T04:16:45.412Z,63.24
2019-03-22T04:19:16.715Z,63.18
2019-03-22T04:21:47.966Z,63.50
2019-03-22T04:24:19.213Z,63.40
2019-03-22T04:26:51.447Z,63.42
2019-03-22T04:29:22.630Z,63.66
2019-03-22T04:31:53.766Z,63.53
2019-03-22T04:34:24.823Z,63.37
2019-03-22T04:36:56.037Z,63.27
2019-03-22T04:39:28.208Z,63.25
2019-03-22T04:41:59.448Z,63.18
2019-03-22T04:44:30.462Z,63.17
2019-03-22T04:47:03.589Z,63.33
2019-03-22T04:49:34.886Z,63.08
2019-03-22T04:52:06.451Z,63.02
2019-03-22T04:54:38.669Z,63.07
2019-03-22T04:57:09.813Z,62.69
2019-03-22T04:59:40.922Z,62.45
2019-03-22T05:02:12.068Z,62.43
2019-03-22T05:04:43.401Z,62.19
2019-03-22T05:07:14.946Z,61.69
2019-03-22T05:09:46.591Z,61.88
2019-03-22T05:12:18.233Z,61.78
2019-03-22T05:14:49.440Z,61.69
2019-03-22T05:17:20.525Z,62.31
2019-03-22T05:19:51.914Z,62.10
2019-03-22T05:22:23.273Z,61.86
2019-03-22T05:24:54.472Z,62.51
2019-03-22T05:27:25.613Z,61.76
2019-03-22T05:29:57.876Z,62.13
2019-03-22T05:32:29.016Z,62.65
2019-03-22T05:35:00.076Z,62.36
2019-03-22T05:37:31.261Z,62.36
2019-03-22T05:40:02.504Z,62.43
2019-03-22T05:42:33.575Z,62.33
2019-03-22T05:45:06.585Z,62.33
2019-03-22T05:47:40.727Z,61.97
2019-03-22T05:50:11.783Z,61.92
2019-03-22T05:52:42.962Z,61.63
2019-03-22T05:55:14.286Z,61.34
2019-03-22T05:57:46.792Z,61.48
2019-03-22T06:00:18.528Z,61.22
2019-03-22T06:02:49.778Z,61.07
2019-03-22T06:05:21.969Z,61.06
2019-03-22T06:07:53.213Z,61.19
2019-03-22T06:10:24.298Z,61.30
2019-03-22T06:12:55.516Z,61.13
2019-03-22T06:15:26.649Z,61.10
2019-03-22T06:17:57.820Z,60.74
2019-03-22T06:20:28.979Z,61.05
2019-03-22T06:23:00.178Z,60.67
2019-03-22T06:25:31.280Z,60.56
2019-03-22T06:28:02.314Z,60.63
2019-03-22T06:30:33.598Z,60.39
2019-03-22T06:33:04.759Z,60.25
2019-03-22T06:35:36.923Z,60.10
2019-03-22T06:38:08.069Z,59.47
2019-03-22T06:40:39.311Z,59.05
2019-03-22T06:43:12.765Z,58.86
2019-03-22T06:45:43.849Z,59.09
2019-03-22T06:48:14.935Z,58.77
2019-03-22T06:50:47.071Z,58.76
2019-03-22T06:53:18.610Z,58.18
2019-03-22T06:55:49.889Z,57.75
2019-03-22T06:58:21.114Z,57.39
2019-03-22T07:00:53.422Z,56.97
2019-03-22T07:03:24.418Z,56.96
2019-03-22T07:05:55.451Z,56.61
2019-03-22T07:08:28.160Z,56.70
2019-03-22T07:10:59.305Z,55.73
2019-03-22T07:13:32.295Z,55.12
2019-03-22T07:16:03.679Z,55.03
2019-03-22T07:18:34.911Z,54.39
2019-03-22T07:21:06.039Z,53.65
2019-03-22T07:23:37.198Z,53.20
2019-03-22T07:26:08.192Z,52.88
2019-03-22T07:28:39.433Z,53.15
2019-03-22T07:31:10.543Z,53.33
2019-03-22T07:33:43.879Z,53.35
2019-03-22T07:36:15.350Z,53.50
2019-03-22T07:38:46.594Z,53.94
2019-03-22T07:41:17.726Z,53.92
2019-03-22T07:43:48.979Z,53.83
2019-03-22T07:46:20.125Z,54.26
2019-03-22T07:48:51.467Z,54.20
2019-03-22T07:51:22.551Z,54.18
2019-03-22T07:53:53.772Z,53.85
2019-03-22T07:56:24.883Z,53.56
2019-03-22T07:58:56.929Z,53.50
2019-03-22T08:01:28.716Z,52.94
2019-03-22T08:03:59.822Z,53.02
2019-03-22T08:06:31.221Z,52.40
2019-03-22T08:09:02.518Z,52.46
2019-03-22T08:11:34.471Z,51.85
2019-03-22T08:14:05.520Z,51.78
2019-03-22T08:16:36.741Z,51.20
2019-03-22T08:19:07.919Z,50.86
2019-03-22T08:21:39.104Z,49.84
2019-03-22T08:24:10.409Z,49.79
2019-03-22T08:26:41.762Z,50.04
2019-03-22T08:29:13.042Z,50.10
2019-03-22T08:31:44.329Z,49.69
2019-03-22T08:34:15.589Z,49.06
2019-03-22T08:36:46.782Z,48.81
2019-03-22T08:39:18.110Z,48.90
2019-03-22T08:41:49.258Z,48.84
2019-03-22T08:44:20.341Z,48.88
2019-03-22T08:46:51.684Z,47.72
2019-03-22T08:49:24.449Z,47.68
2019-03-22T08:51:55.664Z,47.79
2019-03-22T08:54:26.997Z,46.48
2019-03-22T08:56:58.191Z,45.14
2019-03-22T08:59:29.259Z,44.79
2019-03-22T09:02:00.748Z,44.27
2019-03-22T09:04:32.041Z,43.70
2019-03-22T09:07:03.221Z,43.81
2019-03-22T09:09:41.350Z,43.19
2019-03-22T09:12:07.756Z,42.81
2019-03-22T09:14:38.967Z,41.69
2019-03-22T09:17:10.175Z,41.87
2019-03-22T09:19:41.341Z,41.98
2019-03-22T09:22:12.438Z,41.72
2019-03-22T09:24:45.369Z,41.57
2019-03-22T09:27:17.550Z,42.39
2019-03-22T09:29:48.754Z,42.49
2019-03-22T09:32:19.962Z,42.60
2019-03-22T09:34:51.229Z,43.80
2019-03-22T09:37:22.380Z,44.24
2019-03-22T09:39:53.584Z,45.00
2019-03-22T09:42:24.886Z,45.13
2019-03-22T09:44:55.959Z,45.42
2019-03-22T09:47:26.989Z,45.58
2019-03-22T09:49:58.139Z,45.46
2019-03-22T09:52:30.349Z,45.25
2019-03-22T09:55:12.457Z,45.14
2019-03-22T09:57:34.568Z,45.61
2019-03-22T10:00:08.579Z,45.87
2019-03-22T10:02:40.198Z,45.74
2019-03-22T10:05:11.379Z,46.24
2019-03-22T10:07:42.621Z,46.34
2019-03-22T10:10:14.462Z,46.43
2019-03-22T10:12:46.011Z,46.43
2019-03-22T10:15:17.392Z,46.40
2019-03-22T10:17:48.629Z,46.74
2019-03-22T10:20:19.744Z,46.60
2019-03-22T10:22:51.545Z,46.78
2019-03-22T10:25:22.588Z,47.14
2019-03-22T10:27:54.744Z,47.23
2019-03-22T10:30:26.531Z,47.33
2019-03-22T10:32:57.620Z,47.73
2019-03-22T10:35:28.798Z,47.96
2019-03-22T10:38:01.146Z,48.17
2019-03-22T10:40:33.163Z,48.35
2019-03-22T10:43:04.200Z,48.21
2019-03-22T10:45:35.250Z,48.06
2019-03-22T10:48:06.420Z,48.00
2019-03-22T10:50:37.606Z,48.63
2019-03-22T10:53:08.873Z,49.39
2019-03-22T10:55:39.976Z,48.99
2019-03-22T10:58:21.007Z,49.23
2019-03-22T11:00:43.814Z,46.97
2019-03-22T11:03:15.012Z,46.74
2019-03-22T11:05:46.352Z,46.64
2019-03-22T11:08:17.564Z,46.49
2019-03-22T11:10:48.742Z,45.98
2019-03-22T11:13:22.872Z,45.99
2019-03-22T11:15:54.074Z,47.21
2019-03-22T11:18:25.079Z,47.93
2019-03-22T11:21:04.764Z,48.01
2019-03-22T11:23:29.129Z,48.53
2019-03-22T11:26:04.135Z,49.03
2019-03-22T11:28:33.075Z,49.89
2019-03-22T11:31:05.063Z,51.17
2019-03-22T11:33:37.433Z,52.44
2019-03-22T11:36:08.774Z,52.73
2019-03-22T11:38:40.021Z,52.19
2019-03-22T11:41:11.127Z,51.88
2019-03-22T11:43:42.261Z,51.40
2019-03-22T11:46:14.333Z,51.42
2019-03-22T11:48:45.376Z,51.79
2019-03-22T11:51:16.939Z,51.99
2019-03-22T11:53:49.092Z,51.68
2019-03-22T11:56:20.223Z,51.45
2019-03-22T11:58:52.418Z,51.66
2019-03-22T12:01:23.675Z,51.87
2019-03-22T12:03:54.714Z,51.67
2019-03-22T12:06:27.375Z,51.95
2019-03-22T12:09:00.189Z,52.67
2019-03-22T12:11:31.234Z,52.78
2019-03-22T12:14:02.406Z,53.28
2019-03-22T12:16:33.524Z,54.24
2019-03-22T12:19:04.744Z,54.25
2019-03-22T12:21:35.789Z,54.23
2019-03-22T12:24:06.961Z,54.25
2019-03-22T12:26:38.077Z,54.44
2019-03-22T12:29:09.286Z,54.46
2019-03-22T12:31:40.500Z,54.47
2019-03-22T12:34:11.938Z,54.60
2019-03-22T12:36:43.216Z,54.82
2019-03-22T12:39:16.611Z,54.95
2019-03-22T12:41:47.722Z,54.97
2019-03-22T12:44:19.031Z,55.14
2019-03-22T12:46:50.109Z,56.18
2019-03-22T12:49:22.429Z,56.66
2019-03-22T12:51:53.639Z,56.94
2019-03-22T12:54:24.701Z,57.21
2019-03-22T12:56:56.054Z,57.12
2019-03-22T12:59:28.405Z,57.07
2019-03-22T13:02:00.693Z,57.12
2019-03-22T13:04:32.054Z,57.23
2019-03-22T13:07:03.365Z,57.24
2019-03-22T13:09:37.352Z,57.21
2019-03-22T13:12:08.449Z,56.97
2019-03-22T13:14:39.632Z,56.67
2019-03-22T13:17:10.716Z,56.83
2019-03-22T13:19:43.525Z,56.79
2019-03-22T13:22:14.673Z,57.18
2019-03-22T13:24:45.846Z,57.14
2019-03-22T13:27:17.102Z,57.21
2019-03-22T13:29:48.227Z,57.21
2019-03-22T13:32:19.498Z,57.07
2019-03-22T13:34:50.687Z,56.93
2019-03-22T13:37:21.858Z,57.01
2019-03-22T13:39:53.196Z,56.86
2019-03-22T13:42:24.402Z,56.90
2019-03-22T13:44:55.567Z,56.99
2019-03-22T13:47:26.812Z,57.10
2019-03-22T13:49:57.943Z,58.28
2019-03-22T13:52:31.781Z,58.98
2019-03-22T13:55:03.227Z,61.34
2019-03-22T13:57:35.273Z,62.33
2019-03-22T14:00:11.613Z,64.56
2019-03-22T14:02:42.587Z,67.54
2019-03-22T14:05:13.891Z,68.76
2019-03-22T14:07:45.044Z,70.17
2019-03-22T14:10:19.443Z,71.60
2019-03-22T14:12:51.547Z,72.14
2019-03-22T14:15:22.651Z,72.23
2019-03-22T14:17:53.708Z,71.88
2019-03-22T14:20:25.006Z,71.65
2019-03-22T14:22:56.286Z,71.36
2019-03-22T14:25:27.517Z,71.67
2019-03-22T14:27:58.637Z,71.89
2019-03-22T14:30:29.950Z,71.72
2019-03-22T14:33:01.214Z,71.48
2019-03-22T14:35:32.437Z,70.96
2019-03-22T14:38:03.517Z,70.45
2019-03-22T14:40:34.663Z,70.21
2019-03-22T14:43:06.262Z,70.26
2019-03-22T14:45:37.695Z,70.12
2019-03-22T14:48:08.960Z,70.25
2019-03-22T14:50:40.160Z,69.79
2019-03-22T14:53:11.379Z,69.93
2019-03-22T14:55:42.695Z,69.83
2019-03-22T14:58:13.831Z,69.65
2019-03-22T15:00:45.027Z,69.55
2019-03-22T15:03:26.483Z,69.28
2019-03-22T15:05:57.740Z,68.85
2019-03-22T15:08:28.885Z,68.53
2019-03-22T15:11:01.207Z,68.42
2019-03-22T15:13:37.445Z,68.24
2019-03-22T15:16:16.497Z,68.09
2019-03-22T15:18:51.886Z,68.08
2019-03-22T15:21:27.741Z,68.24
2019-03-22T15:24:06.497Z,68.27
2019-03-22T15:26:46.893Z,68.01
2019-03-22T15:29:31.926Z,67.99
2019-03-22T15:32:04.839Z,67.86
2019-03-22T15:34:42.438Z,67.83
2019-03-22T15:37:18.321Z,67.96
2019-03-22T15:40:00.995Z,67.97
2019-03-22T15:42:33.450Z,67.79
2019-03-22T15:45:07.641Z,67.52
2019-03-22T15:47:40.047Z,67.39
2019-03-22T15:50:13.401Z,67.12
2019-03-22T15:52:44.465Z,66.98
2019-03-22T15:55:16.779Z,66.67
2019-03-22T15:57:48.004Z,66.59
2019-03-22T16:00:19.239Z,66.04
2019-03-22T16:02:50.461Z,65.64
2019-03-22T16:05:21.684Z,65.19
2019-03-22T16:07:53.051Z,65.20
2019-03-22T16:10:24.292Z,64.19
2019-03-22T16:12:55.575Z,69.21
2019-03-22T16:15:26.819Z,72.90
2019-03-22T16:17:58.158Z,73.22
2019-03-22T16:20:29.122Z,73.04
2019-03-22T16:23:00.169Z,74.49
2019-03-22T16:25:31.261Z,74.55
2019-03-22T16:28:02.301Z,74.41
2019-03-22T16:30:35.010Z,74.25
2019-03-22T16:33:06.133Z,73.27
2019-03-22T16:35:37.341Z,73.97
2019-03-22T16:38:08.461Z,74.64
2019-03-22T16:40:39.424Z,74.56
2019-03-22T16:43:10.548Z,74.44
2019-03-22T16:45:42.310Z,74.51
2019-03-22T16:48:13.526Z,73.59
2019-03-22T16:50:44.505Z,74.15
2019-03-22T16:53:15.382Z,74.20
2019-03-22T16:55:46.358Z,74.32
2019-03-22T16:58:17.317Z,73.93
2019-03-22T17:00:49.917Z,74.09
2019-03-22T17:03:21.090Z,73.89
2019-03-22T17:05:52.116Z,74.09
2019-03-22T17:08:23.091Z,73.99
2019-03-22T17:10:54.181Z,73.68
2019-03-22T17:13:25.299Z,73.81
2019-03-22T17:15:56.432Z,73.85
2019-03-22T17:18:27.431Z,73.57
2019-03-22T17:20:58.527Z,73.62
2019-03-22T17:23:29.731Z,73.52
2019-03-22T17:26:00.655Z,73.67
2019-03-22T17:28:31.795Z,73.26
2019-03-22T17:31:03.934Z,72.98
2019-03-22T17:33:34.943Z,73.06
2019-03-22T17:36:05.956Z,73.16
2019-03-22T17:38:37.195Z,72.93
2019-03-22T17:41:08.096Z,73.12
2019-03-22T17:43:39.145Z,73.33
2019-03-22T17:46:10.090Z,73.41
2019-03-22T17:48:41.403Z,73.91
2019-03-22T17:51:12.421Z,73.83
2019-03-22T17:53:43.552Z,74.09
2019-03-22T17:56:14.551Z,73.96
2019-03-22T17:58:45.484Z,73.88
2019-03-22T18:01:16.704Z,73.97
2019-03-22T18:03:47.912Z,73.27
2019-03-22T18:06:18.857Z,73.41
2019-03-22T18:08:49.958Z,73.49
2019-03-22T18:11:21.099Z,73.52
2019-03-22T18:13:52.275Z,73.73
2019-03-22T18:16:23.260Z,73.73
2019-03-22T18:18:55.835Z,73.42
2019-03-22T18:21:26.725Z,73.29
2019-03-22T18:23:57.777Z,72.72
2019-03-22T18:26:28.943Z,72.08
2019-03-22T18:29:00.001Z,71.94
2019-03-22T18:31:30.949Z,71.76
2019-03-22T18:34:02.001Z,71.36
2019-03-22T18:36:33.261Z,70.96
2019-03-22T18:39:06.172Z,70.69
2019-03-22T18:41:38.342Z,70.52
2019-03-22T18:44:09.424Z,70.84
2019-03-22T18:46:41.383Z,70.38
2019-03-22T18:49:12.426Z,70.41
2019-03-22T18:51:43.561Z,70.50
2019-03-22T18:54:15.472Z,70.65
2019-03-22T18:56:46.492Z,70.90
2019-03-22T18:59:17.635Z,70.79
2019-03-22T19:01:48.661Z,70.94
2019-03-22T19:04:19.696Z,71.02
2019-03-22T19:06:50.805Z,71.53
2019-03-22T19:09:23.949Z,71.72
2019-03-22T19:11:55.074Z,71.61
2019-03-22T19:14:26.241Z,71.39
2019-03-22T19:16:57.354Z,71.60
2019-03-22T19:19:28.448Z,71.20
2019-03-22T19:21:59.436Z,71.52
2019-03-22T19:26:52.813Z,71.48
2019-03-22T19:29:23.781Z,71.81
2019-03-22T19:31:55.104Z,71.55
2019-03-22T19:34:26.151Z,71.58
2019-03-22T19:36:57.093Z,71.59
2019-03-22T19:39:28.237Z,71.79
2019-03-22T19:41:59.268Z,71.77
2019-03-22T19:44:30.234Z,71.64
2019-03-22T19:47:01.373Z,71.35
2019-03-22T19:49:32.390Z,71.50
2019-03-22T19:52:03.468Z,71.31
2019-03-22T19:54:34.566Z,71.47
2019-03-22T19:57:05.824Z,71.64
2019-03-22T19:59:38.319Z,71.38
2019-03-22T20:02:09.358Z,70.93
2019-03-22T20:04:40.620Z,70.76
2019-03-22T20:07:11.596Z,69.71
2019-03-22T20:09:44.253Z,69.97
2019-03-22T20:12:16.347Z,69.86
2019-03-22T20:14:47.215Z,70.50
2019-03-22T20:17:18.552Z,69.92
2019-03-22T20:19:49.684Z,69.68
2019-03-22T20:22:20.742Z,69.38
2019-03-22T20:24:51.824Z,69.17
2019-03-22T20:27:22.923Z,69.45
2019-03-22T20:29:54.265Z,69.41
2019-03-22T20:32:25.356Z,68.89
2019-03-22T20:34:56.626Z,68.65
2019-03-22T20:37:27.784Z,68.70
2019-03-22T20:39:58.758Z,68.56
2019-03-22T20:42:29.994Z,68.67
2019-03-22T20:45:00.911Z,68.38
2019-03-22T20:47:32.177Z,67.82
2019-03-22T20:50:05.885Z,67.69
2019-03-22T20:52:36.938Z,67.51
2019-03-22T20:55:08.825Z,67.56
2019-03-22T20:57:39.910Z,67.18
2019-03-22T21:00:15.676Z,66.94
2019-03-22T21:02:46.955Z,66.68
2019-03-22T21:05:26.457Z,66.27
2019-03-22T21:07:50.848Z,66.10
2019-03-22T21:10:22.099Z,66.13
2019-03-22T21:12:53.291Z,65.97
2019-03-22T21:15:24.965Z,67.26
2019-03-22T21:17:56.143Z,67.50
2019-03-22T21:20:27.236Z,67.17
2019-03-22T21:22:58.520Z,66.89
2019-03-22T21:25:29.917Z,66.90
2019-03-22T21:28:01.078Z,66.54
2019-03-22T21:30:32.067Z,65.94
2019-03-22T21:33:03.095Z,65.69
2019-03-22T21:35:37.543Z,65.42
2019-03-22T21:38:10.993Z,65.42
2019-03-22T21:40:39.700Z,65.83
2019-03-22T21:43:11.845Z,65.75
2019-03-22T21:45:43.015Z,65.71
2019-03-22T21:48:14.208Z,66.02
2019-03-22T21:50:45.298Z,66.13
2019-03-22T21:53:17.137Z,66.05
2019-03-22T21:55:48.242Z,66.16
2019-03-22T21:58:19.151Z,66.20
2019-03-22T22:00:50.036Z,66.70
2019-03-22T22:03:21.196Z,67.20
2019-03-22T22:05:52.206Z,67.52
2019-03-22T22:08:23.498Z,67.83
2019-03-22T22:11:00.053Z,67.89
2019-03-22T22:13:28.882Z,68.25
2019-03-22T22:16:00.140Z,68.50
2019-03-22T22:18:31.282Z,68.24
2019-03-22T22:21:02.388Z,67.95
2019-03-22T22:23:33.565Z,68.12
2019-03-22T22:26:04.644Z,68.32
2019-03-22T22:28:35.756Z,68.53
2019-03-22T22:31:06.942Z,68.47
2019-03-22T22:33:38.137Z,68.47
2019-03-22T22:36:09.332Z,68.30
2019-03-22T22:38:40.494Z,68.35
2019-03-22T22:41:11.566Z,67.57
2019-03-22T22:43:42.995Z,67.81
2019-03-22T22:46:13.888Z,67.58
2019-03-22T22:48:45.034Z,67.73
2019-03-22T22:51:16.235Z,67.63
2019-03-22T22:53:47.303Z,67.65
2019-03-22T22:56:18.932Z,68.01
2019-03-22T22:58:51.053Z,67.71
2019-03-22T23:01:23.204Z,67.37
2019-03-22T23:03:54.331Z,67.15
2019-03-22T23:06:25.445Z,66.69
2019-03-22T23:08:56.680Z,66.11
2019-03-22T23:11:27.870Z,66.11
2019-03-22T23:13:58.989Z,65.84
2019-03-22T23:16:31.167Z,65.79
2019-03-22T23:19:02.267Z,65.43
2019-03-22T23:21:33.227Z,65.21
2019-03-22T23:24:04.294Z,64.85
2019-03-22T23:26:35.420Z,63.44
2019-03-22T23:29:06.552Z,62.97
2019-03-22T23:31:39.306Z,61.59
2019-03-22T23:34:11.314Z,61.90
2019-03-22T23:36:43.998Z,59.64
2019-03-22T23:39:15.087Z,59.82
2019-03-22T23:41:46.064Z,59.40
2019-03-22T23:44:17.290Z,58.87
2019-03-22T23:46:48.478Z,58.28
2019-03-22T23:49:19.664Z,58.44
2019-03-22T23:51:50.728Z,58.59
2019-03-22T23:54:21.672Z,58.23
2019-03-22T23:56:52.634Z,58.29
2019-03-22T23:59:23.700Z,58.11
